Aérodrome :
LOGIN :

S'inscrire | Disclaimer

   EN    FR    IT 

 










Légende :    VFR   VFR Marginal   IFR   IFR Intensif   IFR Très Intensif
Visi : 
Plafond : 
>= 8 km
>= 3000ft
5 à 8 km
1000 à 3000 ft
1500m à 5 km
500 à 1000 ft
800 à 1500m
200 à 500 ft
< 800m
< 200 ft
Symboles :   Orages  Brouillard  Fortes neiges  Fortes précipitations  Vent > 20 kt
SIGMETs :   Divers  Orages  Givrage  Turbulence  Onde Orograph.  Cendres Volcan.






- Altitude de l'aérodrome : 870 ft
- Code IATA : ETZ


LFJL - Metz Nancy Lorraine

DERNIER METAR :
  • 260600Z AUTO 21009KT 9999 FEW012 OVC150 09/08 Q1004 TEMPO BKN012

METARs EXPIRÉS :
  • 260530Z AUTO 21010KT 9999 SCT013 OVC150 09/08 Q1004 TEMPO BKN014
  • 260500Z AUTO 22009KT 9999 FEW013 OVC150 09/08 Q1004 TEMPO BKN014
  • 260430Z AUTO 22007KT 9999 SCT013 OVC150 09/08 Q1003 TEMPO BKN014
  • 260400Z AUTO 22010KT 9999 BKN014 BKN033 OVC140 10/08 Q1004 NOSIG
  • 260330Z AUTO 22011KT 9999 SCT015 SCT020 OVC120 10/08 Q1003 TEMPO BKN014

TAF TAF LFJL
Valide du 26 à 06h jusqu'au 27 à 06h UTC


260500Z 2606/2706 24008KT 9999 BKN020
PROB40
TEMPO 2606/2608 BKN012
TEMPO 2614/2621 -SHRA FEW030TCU
PROB40
TEMPO 2700/2706 -SHRA BKN010



MET'MAP, la Météo Aéronautique d'un coup d'oeil ! - Copyright ORBIFLY Décembre 2007 - Disclaimer

ORBIFLY MET'MAP TEAM :

Programmation & Développement : Alexandra Zaïnal
Sur une idée originale de : Baudouin d'Aumeries
Assistance à la programmation : Marc-Olivier Méhu
Soutien technique & logistique : Manuel Goepfert

Contact : metmap@orbifly.com




SOURCES & CREDITS :

   NOAA